Time;durP1;ratioP1;P1;durP2;ratioP2;P2;SDS_P1;SDS_P2;PMS_P1;PMS_P2;Temp;Humidity;BMP_temperature;BMP_pressure;BME280_temperature;BME280_humidity;BME280_pressure;Samples;Min_cycle;Max_cycle;Signal;HPM_P1;HPM_P2
2021/06/12 00:01:53;;;;;;;;;;;;;;;14.55;100.00;100122.72;5115422;28;19922;-68
2021/06/12 00:04:18;;;;;;;;;;;;;;;14.56;100.00;100120.91;5115240;28;19912;-68
2021/06/12 00:06:43;;;;;;;;;;;;;;;14.54;100.00;100139.50;5115466;28;19911;-68
2021/06/12 00:09:09;;;;;;;;;;;;;;;14.62;100.00;100136.09;5115286;28;19919;-68
2021/06/12 00:11:34;;;;;;;;;;;;;;;14.71;100.00;100145.72;5115272;28;19923;-68
2021/06/12 00:14:00;;;;;;;;;;;;;;;14.82;100.00;100140.19;5115164;28;19912;-68
2021/06/12 00:16:25;;;;;;;;;;;;;;;14.74;100.00;100140.13;5115167;28;19972;-68
2021/06/12 00:18:50;;;;;;;;;;;;;;;14.75;100.00;100143.59;5115034;28;19912;-68
2021/06/12 00:21:16;;;;;;;;;;;;;;;14.84;100.00;100146.13;5115193;28;19912;-68
2021/06/12 00:23:41;;;;;;;;;;;;;;;14.86;100.00;100133.63;5115147;28;20005;-68
2021/06/12 00:26:06;;;;;;;;;;;;;;;14.84;100.00;100138.22;5115512;28;19912;-68
2021/06/12 00:28:32;;;;;;;;;;;;;;;14.81;100.00;100130.59;5115194;28;19926;-68
2021/06/12 00:30:57;;;;;;;;;;;;;;;14.84;100.00;100134.75;5115076;28;19973;-68
2021/06/12 00:33:22;;;;;;;;;;;;;;;14.74;100.00;100131.38;5114542;28;19912;-68
2021/06/12 00:35:48;;;;;;;;;;;;;;;14.68;100.00;100130.22;5114257;28;19916;-69
2021/06/12 00:38:13;;;;;;;;;;;;;;;14.63;100.00;100128.03;5113854;28;19922;-69
2021/06/12 00:40:39;;;;;;;;;;;;;;;14.67;100.00;100128.53;5114127;28;19960;-69
2021/06/12 00:43:05;;;;;;;;;;;;;;;14.57;100.00;100128.63;5114025;28;19922;-69
2021/06/12 00:45:31;;;;;;;;;;;;;;;14.49;100.00;100135.66;5114036;28;19911;-69
2021/06/12 00:47:57;;;;;;;;;;;;;;;14.43;100.00;100131.81;5113859;28;19969;-68
2021/06/12 00:50:25;;;;;;;;;;;;;;;14.37;100.00;100133.25;5095653;28;19912;-69
2021/06/12 00:52:50;;;;;;;;;;;;;;;14.30;100.00;100131.38;5114389;28;19912;-68
2021/06/12 00:55:16;;;;;;;;;;;;;;;14.21;100.00;100127.88;5114317;28;19915;-68
2021/06/12 00:57:42;;;;;;;;;;;;;;;14.10;100.00;100130.72;5114687;28;20041;-69
2021/06/12 01:00:09;;;;;;;;;;;;;;;14.03;100.00;100132.31;5114239;28;20006;-69
2021/06/12 01:02:35;;;;;;;;;;;;;;;13.96;100.00;100134.72;5114213;28;19919;-69
2021/06/12 01:08:04;;;;;;;;;;;;;;;14.07;100.00;100141.56;5111691;28;19918;-69
2021/06/12 01:10:29;;;;;;;;;;;;;;;14.04;100.00;100147.13;5114189;28;19911;-68
2021/06/12 01:13:13;;;;;;;;;;;;;;;13.98;100.00;100145.13;5113748;28;20044;-69
2021/06/12 01:15:49;;;;;;;;;;;;;;;13.97;100.00;100141.63;5113783;28;19924;-68
2021/06/12 01:18:16;;;;;;;;;;;;;;;14.03;100.00;100140.22;5114488;28;19911;-68
2021/06/12 01:21:14;;;;;;;;;;;;;;;14.03;100.00;100145.47;5113513;28;20393;-69
2021/06/12 01:23:39;;;;;;;;;;;;;;;14.10;100.00;100138.63;5046485;28;19919;-68
2021/06/12 01:26:24;;;;;;;;;;;;;;;14.15;100.00;100133.75;5111365;28;20298;-69
2021/06/12 01:28:58;;;;;;;;;;;;;;;14.23;100.00;100141.72;5114658;28;20394;-69
2021/06/12 01:31:24;;;;;;;;;;;;;;;14.22;100.00;100140.06;5113608;28;19922;-69
2021/06/12 01:33:51;;;;;;;;;;;;;;;14.27;100.00;100137.78;5112908;28;19912;-69
2021/06/12 01:36:32;;;;;;;;;;;;;;;14.29;100.00;100135.84;5112724;28;19912;-69
2021/06/12 01:38:58;;;;;;;;;;;;;;;14.41;100.00;100131.97;5112638;28;20018;-69
2021/06/12 01:41:25;;;;;;;;;;;;;;;14.53;100.00;100131.75;5113619;28;19950;-69
2021/06/12 01:43:53;;;;;;;;;;;;;;;14.62;100.00;100131.66;5113762;28;19919;-68
2021/06/12 01:46:19;;;;;;;;;;;;;;;14.75;100.00;100133.03;5113621;28;19912;-68
2021/06/12 01:48:45;;;;;;;;;;;;;;;14.82;100.00;100134.91;5113583;28;20010;-69
2021/06/12 01:53:56;;;;;;;;;;;;;;;14.98;100.00;100147.34;5113756;28;19978;-68
2021/06/12 01:56:23;;;;;;;;;;;;;;;14.98;100.00;100146.53;5113404;28;20049;-68
2021/06/12 01:58:49;;;;;;;;;;;;;;;14.97;100.00;100142.25;5113084;28;20002;-68
2021/06/12 02:01:15;;;;;;;;;;;;;;;14.98;100.00;100138.63;5113401;28;19918;-68
2021/06/12 02:03:41;;;;;;;;;;;;;;;15.03;100.00;100142.44;5113308;28;19911;-68
2021/06/12 02:06:10;;;;;;;;;;;;;;;15.09;100.00;100146.28;5113244;28;19976;-68
2021/06/12 02:08:35;;;;;;;;;;;;;;;15.19;100.00;100149.63;5112715;28;20390;-69
2021/06/12 02:11:01;;;;;;;;;;;;;;;15.27;100.00;100149.66;5112878;28;19911;-68
2021/06/12 02:13:26;;;;;;;;;;;;;;;15.22;100.00;100151.09;5113650;28;19955;-68
2021/06/12 02:15:54;;;;;;;;;;;;;;;15.09;100.00;100148.91;5095178;28;19911;-68
2021/06/12 02:18:19;;;;;;;;;;;;;;;15.03;100.00;100152.19;5113082;28;19912;-68
2021/06/12 02:20:45;;;;;;;;;;;;;;;15.03;100.00;100152.19;5113686;28;20306;-68
2021/06/12 02:23:10;;;;;;;;;;;;;;;14.98;100.00;100146.53;5113141;28;19960;-68
2021/06/12 02:25:36;;;;;;;;;;;;;;;14.97;100.00;100140.44;5113170;28;19960;-68
2021/06/12 02:28:04;;;;;;;;;;;;;;;14.92;100.00;100142.72;5112483;28;19926;-68
2021/06/12 02:30:31;;;;;;;;;;;;;;;14.99;100.00;100145.56;5113212;28;19958;-68
2021/06/12 02:33:02;;;;;;;;;;;;;;;15.07;100.00;100142.94;5094266;28;19916;-68
2021/06/12 02:38:11;;;;;;;;;;;;;;;15.27;100.00;100143.53;5109826;28;19922;-68
2021/06/12 02:40:36;;;;;;;;;;;;;;;15.21;100.00;100149.44;5111996;28;20310;-69
2021/06/12 02:43:02;;;;;;;;;;;;;;;15.17;100.00;100146.31;5112085;28;19966;-69
2021/06/12 02:45:28;;;;;;;;;;;;;;;15.11;100.00;100149.56;5112301;28;19920;-68
2021/06/12 02:47:55;;;;;;;;;;;;;;;15.14;100.00;100145.78;5112528;28;19920;-68
2021/06/12 02:50:22;;;;;;;;;;;;;;;15.14;100.00;100151.88;5112793;28;19968;-69
2021/06/12 02:55:50;;;;;;;;;;;;;;;15.22;100.00;100159.88;5114942;28;19915;-68
2021/06/12 02:58:19;;;;;;;;;;;;;;;15.23;100.00;100156.22;5117078;28;19911;-68
2021/06/12 03:00:47;;;;;;;;;;;;;;;15.27;100.00;100154.09;5116625;28;19919;-68
2021/06/12 03:03:13;;;;;;;;;;;;;;;15.28;100.00;100159.22;5116517;28;20293;-68
2021/06/12 03:05:41;;;;;;;;;;;;;;;15.31;100.00;100158.06;5116850;28;20010;-68
2021/06/12 03:08:07;;;;;;;;;;;;;;;15.30;100.00;100159.06;5116521;28;19912;-68
2021/06/12 03:10:34;;;;;;;;;;;;;;;15.28;100.00;100167.13;5116460;28;19919;-68
2021/06/12 03:16:03;;;;;;;;;;;;;;;15.32;100.00;100170.28;5116071;28;19922;-68
2021/06/12 03:18:28;;;;;;;;;;;;;;;15.33;100.00;100164.84;5116491;28;19911;-69
2021/06/12 03:20:55;;;;;;;;;;;;;;;15.33;100.00;100170.13;5116320;28;19911;-68
2021/06/12 03:23:21;;;;;;;;;;;;;;;15.38;100.00;100174.94;5116250;28;20006;-69
2021/06/12 03:25:46;;;;;;;;;;;;;;;15.44;100.00;100174.31;5116187;28;19955;-69
2021/06/12 03:28:12;;;;;;;;;;;;;;;15.48;100.00;100169.53;5116309;28;20306;-68
2021/06/12 03:30:37;;;;;;;;;;;;;;;15.53;100.00;100169.88;5115748;28;19919;-69
2021/06/12 03:33:04;;;;;;;;;;;;;;;15.57;100.00;100179.13;5115302;28;19961;-69
2021/06/12 03:38:14;;;;;;;;;;;;;;;15.70;100.00;100186.66;5116583;28;20359;-68
2021/06/12 03:40:40;;;;;;;;;;;;;;;15.72;100.00;100182.84;5116068;28;19939;-68
2021/06/12 03:43:07;;;;;;;;;;;;;;;15.79;100.00;100180.38;5115991;28;19969;-68
2021/06/12 03:45:33;;;;;;;;;;;;;;;15.86;100.00;100188.50;5115338;28;20363;-68
2021/06/12 03:48:00;;;;;;;;;;;;;;;15.90;100.00;100185.38;5114991;28;19918;-68
2021/06/12 03:50:27;;;;;;;;;;;;;;;15.99;100.00;100188.84;5115187;28;19919;-69
2021/06/12 03:52:53;;;;;;;;;;;;;;;16.11;100.00;100194.66;5115491;28;20332;-68
2021/06/12 03:55:19;;;;;;;;;;;;;;;16.25;100.00;100188.72;5115540;28;19919;-68
2021/06/12 03:57:44;;;;;;;;;;;;;;;16.37;100.00;100189.22;5115571;28;20285;-68
2021/06/12 04:00:11;;;;;;;;;;;;;;;16.48;100.00;100196.84;5115339;28;19918;-69
2021/06/12 04:02:36;;;;;;;;;;;;;;;16.61;100.00;100199.81;5114589;28;19912;-69
2021/06/12 04:05:02;;;;;;;;;;;;;;;16.73;100.00;100202.94;5096717;28;20002;-69
2021/06/12 04:07:28;;;;;;;;;;;;;;;16.82;100.00;100206.44;5113984;28;19916;-69
2021/06/12 04:09:53;;;;;;;;;;;;;;;16.93;100.00;100204.25;5114978;28;19919;-70
2021/06/12 04:12:20;;;;;;;;;;;;;;;17.03;100.00;100205.91;5114595;28;19935;-70
2021/06/12 04:14:45;;;;;;;;;;;;;;;17.06;100.00;100203.75;5114458;28;19912;-70
2021/06/12 04:17:11;;;;;;;;;;;;;;;17.05;100.00;100202.09;5114447;28;19919;-69
2021/06/12 04:19:39;;;;;;;;;;;;;;;17.07;100.00;100204.56;5114619;28;20401;-70
2021/06/12 04:22:05;;;;;;;;;;;;;;;17.17;100.00;100200.72;5114483;28;20435;-70
2021/06/12 04:27:15;;;;;;;;;;;;;;;17.17;100.00;100205.19;5115267;28;20291;-69
2021/06/12 04:29:40;;;;;;;;;;;;;;;17.16;100.00;100204.38;5114947;28;19911;-69
2021/06/12 04:32:06;;;;;;;;;;;;;;;17.12;100.00;100203.06;5114684;28;19955;-69
2021/06/12 04:34:31;;;;;;;;;;;;;;;17.15;100.00;100194.78;5115302;28;19918;-69
2021/06/12 04:36:56;;;;;;;;;;;;;;;17.41;100.00;100196.34;5114424;28;19916;-70
2021/06/12 04:42:06;;;;;;;;;;;;;;;17.71;100.00;100208.78;5114806;28;19918;-69
2021/06/12 04:44:31;;;;;;;;;;;;;;;17.60;100.00;100216.31;5114666;28;20006;-69
2021/06/12 04:46:56;;;;;;;;;;;;;;;17.59;100.00;100220.78;5114993;28;19919;-69
2021/06/12 04:49:21;;;;;;;;;;;;;;;17.61;100.00;100218.78;5114112;28;19915;-70
2021/06/12 04:51:47;;;;;;;;;;;;;;;17.80;100.00;100219.41;5113706;28;19927;-70
2021/06/12 04:54:12;;;;;;;;;;;;;;;17.99;100.00;100211.00;5114270;28;20390;-70
2021/06/12 04:56:38;;;;;;;;;;;;;;;18.08;100.00;100214.41;5114471;28;19930;-70
2021/06/12 04:59:03;;;;;;;;;;;;;;;18.07;100.00;100224.22;5113932;28;19911;-71
2021/06/12 05:01:29;;;;;;;;;;;;;;;18.06;100.00;100222.56;5114336;28;19954;-70
2021/06/12 05:04:13;;;;;;;;;;;;;;;17.94;100.00;100219.47;5114724;28;19911;-70
2021/06/12 05:06:38;;;;;;;;;;;;;;;17.99;100.00;100226.91;5114400;28;19965;-70
2021/06/12 05:09:03;;;;;;;;;;;;;;;18.08;100.00;100215.25;5112484;28;19915;-71
2021/06/12 05:11:29;;;;;;;;;;;;;;;18.08;100.00;100225.84;5112312;28;20301;-71
2021/06/12 05:13:54;;;;;;;;;;;;;;;18.05;100.00;100215.59;5112645;28;19912;-71
2021/06/12 05:16:19;;;;;;;;;;;;;;;18.26;100.00;100233.53;5112443;28;20010;-70
2021/06/12 05:18:45;;;;;;;;;;;;;;;18.06;100.00;100233.19;5112136;28;19919;-71
2021/06/12 05:21:14;;;;;;;;;;;;;;;18.20;100.00;100234.25;5112133;28;20366;-71
2021/06/12 05:23:57;;;;;;;;;;;;;;;18.44;100.00;100233.25;5112390;28;20011;-71
2021/06/12 05:26:23;;;;;;;;;;;;;;;18.56;100.00;100231.84;5112645;28;19915;-71
2021/06/12 05:28:48;;;;;;;;;;;;;;;18.54;100.00;100241.78;5114015;28;19923;-71
2021/06/12 05:31:13;;;;;;;;;;;;;;;18.63;100.00;100235.41;5113801;28;19912;-71
2021/06/12 05:33:39;;;;;;;;;;;;;;;18.73;100.00;100242.31;5113638;28;19911;-71
2021/06/12 05:36:04;;;;;;;;;;;;;;;18.72;100.00;100246.81;5113168;28;19915;-71
2021/06/12 05:38:31;;;;;;;;;;;;;;;18.77;100.00;100248.94;5095334;28;19975;-72
2021/06/12 05:40:56;;;;;;;;;;;;;;;18.64;100.00;100244.19;5112808;28;19916;-72
2021/06/12 05:43:22;;;;;;;;;;;;;;;18.61;100.00;100242.72;5112737;28;20033;-72
2021/06/12 05:45:47;;;;;;;;;;;;;;;18.88;100.00;100244.00;5113057;28;19939;-72
2021/06/12 05:48:13;;;;;;;;;;;;;;;19.06;100.00;100251.63;5113540;28;19964;-72
2021/06/12 05:50:38;;;;;;;;;;;;;;;19.07;100.00;100247.19;5113639;28;19912;-72
2021/06/12 05:53:03;;;;;;;;;;;;;;;19.30;100.00;100245.28;5111620;28;19958;-72
2021/06/12 05:55:29;;;;;;;;;;;;;;;19.55;100.00;100244.97;5113447;28;19922;-72
2021/06/12 05:57:54;;;;;;;;;;;;;;;19.74;100.00;100249.78;5104847;28;19926;-72
2021/06/12 06:00:20;;;;;;;;;;;;;;;19.85;100.00;100251.13;5112837;28;20290;-71
2021/06/12 06:02:45;;;;;;;;;;;;;;;19.81;100.00;100249.84;5113258;28;20282;-72
2021/06/12 06:05:11;;;;;;;;;;;;;;;19.84;100.00;100244.13;5113350;28;19934;-71
2021/06/12 06:10:39;;;;;;;;;;;;;;;20.24;100.00;100239.25;5092637;28;19923;-72
2021/06/12 06:13:04;;;;;;;;;;;;;;;20.37;100.00;100244.72;5058185;28;19915;-72
2021/06/12 06:15:30;;;;;;;;;;;;;;;20.50;100.00;100242.22;5092919;28;20007;-72
2021/06/12 06:17:55;;;;;;;;;;;;;;;20.63;100.00;100243.34;5092764;28;19969;-72
2021/06/12 06:20:21;;;;;;;;;;;;;;;20.87;100.00;100239.44;5109996;28;20374;-72
2021/06/12 06:22:46;;;;;;;;;;;;;;;20.93;100.00;100244.00;5112452;28;20006;-72
2021/06/12 06:25:11;;;;;;;;;;;;;;;20.97;100.00;100243.41;5110816;28;20274;-72
2021/06/12 06:27:49;;;;;;;;;;;;;;;21.04;100.00;100247.97;5110432;28;20180;-72
2021/06/12 06:30:15;;;;;;;;;;;;;;;21.03;100.00;100241.00;5113169;28;19965;-72
2021/06/12 06:32:40;;;;;;;;;;;;;;;21.10;100.00;100249.88;5116366;28;19920;-72
2021/06/12 06:35:06;;;;;;;;;;;;;;;21.06;100.00;100245.91;5116246;28;20393;-72
2021/06/12 06:37:31;;;;;;;;;;;;;;;21.20;100.00;100245.00;5116591;28;19915;-72
2021/06/12 06:39:56;;;;;;;;;;;;;;;21.40;100.00;100251.31;5116620;28;20079;-72
2021/06/12 06:42:22;;;;;;;;;;;;;;;21.54;100.00;100243.38;5116541;28;19915;-72
2021/06/12 06:44:47;;;;;;;;;;;;;;;21.66;100.00;100249.78;5116376;28;19923;-73
2021/06/12 06:47:12;;;;;;;;;;;;;;;21.72;100.00;100251.66;5115960;28;19998;-72
2021/06/12 06:49:39;;;;;;;;;;;;;;;21.85;100.00;100249.06;5116552;28;19922;-72
2021/06/12 06:52:04;;;;;;;;;;;;;;;21.96;100.00;100241.50;5115810;28;19922;-72
2021/06/12 06:54:30;;;;;;;;;;;;;;;21.85;100.00;100242.91;5115546;28;20309;-72
2021/06/12 06:56:55;;;;;;;;;;;;;;;21.77;100.00;100246.56;5115351;28;19918;-72
2021/06/12 06:59:21;;;;;;;;;;;;;;;21.86;100.00;100239.19;5115197;28;19912;-72
2021/06/12 07:02:05;;;;;;;;;;;;;;;21.96;100.00;100241.50;5115064;28;19923;-72
2021/06/12 07:04:32;;;;;;;;;;;;;;;22.18;100.00;100239.53;5096858;28;19935;-72
2021/06/12 07:06:57;;;;;;;;;;;;;;;22.06;100.00;100239.25;5097502;28;19912;-72
2021/06/12 07:09:24;;;;;;;;;;;;;;;22.23;100.00;100235.22;5115910;28;19911;-72
2021/06/12 07:11:50;;;;;;;;;;;;;;;22.21;100.00;100226.63;5115822;28;19961;-72
2021/06/12 07:14:15;;;;;;;;;;;;;;;22.09;100.00;100228.19;5115506;28;19912;-72
2021/06/12 07:16:40;;;;;;;;;;;;;;;22.23;100.00;100229.88;5115749;28;19972;-72
2021/06/12 07:19:06;;;;;;;;;;;;;;;22.32;100.00;100230.53;5097348;28;19968;-72
2021/06/12 07:21:31;;;;;;;;;;;;;;;22.46;100.00;100224.16;5116156;28;20010;-72
2021/06/12 07:23:56;;;;;;;;;;;;;;;22.65;100.00;100227.88;5096805;28;20382;-72
2021/06/12 07:26:22;;;;;;;;;;;;;;;22.81;100.00;100227.47;5115492;28;19911;-72
2021/06/12 07:28:47;;;;;;;;;;;;;;;22.87;100.00;100221.28;5115874;28;19923;-72
2021/06/12 07:31:12;;;;;;;;;;;;;;;22.99;100.00;100220.72;5115015;28;20473;-72
2021/06/12 07:33:38;;;;;;;;;;;;;;;22.98;100.00;100221.72;5114128;28;19927;-72
2021/06/12 07:36:03;;;;;;;;;;;;;;;23.00;100.00;100219.66;5114409;28;19919;-71
2021/06/12 07:41:12;;;;;;;;;;;;;;;22.81;100.00;100222.13;5115034;28;19923;-72
2021/06/12 07:43:38;;;;;;;;;;;;;;;22.92;100.00;100219.88;5115857;28;20286;-72
2021/06/12 07:46:03;;;;;;;;;;;;;;;22.86;100.00;100214.31;5115845;28;19912;-72
2021/06/12 07:48:28;;;;;;;;;;;;;;;23.06;100.00;100216.16;5116138;28;20358;-72
2021/06/12 07:50:54;;;;;;;;;;;;;;;23.18;100.00;100213.66;5097474;28;19998;-73
2021/06/12 07:53:19;;;;;;;;;;;;;;;23.32;100.00;100208.09;5115592;28;20013;-72
2021/06/12 07:55:44;;;;;;;;;;;;;;;23.40;100.00;100215.06;5115513;28;19920;-73
2021/06/12 07:58:10;;;;;;;;;;;;;;;23.52;100.00;100216.03;5114536;28;20002;-73
2021/06/12 08:00:35;;;;;;;;;;;;;;;23.45;100.00;100211.72;5115480;28;19919;-72
2021/06/12 08:03:00;;;;;;;;;;;;;;;23.67;100.00;100210.41;5115480;28;20018;-72
2021/06/12 08:05:26;;;;;;;;;;;;;;;23.86;100.00;100213.22;5097258;28;19911;-72
2021/06/12 08:07:52;;;;;;;;;;;;;;;23.97;100.00;100217.94;5114860;28;19915;-72
2021/06/12 08:10:17;;;;;;;;;;;;;;;24.14;100.00;100213.69;5114446;28;19915;-72
2021/06/12 08:12:43;;;;;;;;;;;;;;;24.35;100.00;100207.16;5113170;28;19934;-72
2021/06/12 08:15:09;;;;;;;;;;;;;;;24.24;100.00;100202.50;5114877;28;19912;-72
2021/06/12 08:17:34;;;;;;;;;;;;;;;24.32;100.00;100207.59;5113691;28;21233;-72
2021/06/12 08:20:00;;;;;;;;;;;;;;;24.34;100.00;100210.88;5114688;28;20021;-72
2021/06/12 08:22:25;;;;;;;;;;;;;;;24.28;100.00;100201.03;5113970;28;19916;-72
2021/06/12 08:24:50;;;;;;;;;;;;;;;24.06;100.00;100203.22;5114745;28;20259;-71
2021/06/12 08:27:16;;;;;;;;;;;;;;;24.28;100.00;100207.22;5114647;28;19976;-72
2021/06/12 08:30:12;;;;;;;;;;;;;;;24.43;100.00;100208.78;5114331;28;20019;-72
2021/06/12 08:32:39;;;;;;;;;;;;;;;24.61;100.00;100208.03;5110827;28;20459;-71
2021/06/12 08:35:04;;;;;;;;;;;;;;;24.92;100.00;100199.91;5112909;28;19923;-71
2021/06/12 08:37:29;;;;;;;;;;;;;;;25.02;100.00;100191.34;5112825;28;19923;-71
2021/06/12 08:39:55;;;;;;;;;;;;;;;24.82;100.00;100199.59;5112456;28;19916;-71
2021/06/12 08:42:21;;;;;;;;;;;;;;;25.03;100.00;100187.63;5112307;28;20313;-71
2021/06/12 08:44:47;;;;;;;;;;;;;;;25.25;100.00;100200.66;5112066;28;19915;-71
2021/06/12 08:47:13;;;;;;;;;;;;;;;25.69;100.00;100196.81;5111090;28;19922;-71
2021/06/12 08:49:38;;;;;;;;;;;;;;;25.61;100.00;100197.09;5111115;28;19919;-71
2021/06/12 08:52:04;;;;;;;;;;;;;;;25.75;100.00;100197.75;5111367;28;20478;-70
2021/06/12 08:54:29;;;;;;;;;;;;;;;26.03;100.00;100203.38;5111415;28;20015;-71
2021/06/12 08:56:55;;;;;;;;;;;;;;;26.06;100.00;100200.25;5112071;28;20286;-71
2021/06/12 08:59:20;;;;;;;;;;;;;;;26.01;100.00;100202.78;5112123;28;20368;-71
2021/06/12 09:01:46;;;;;;;;;;;;;;;26.04;100.00;100202.31;5113250;28;19920;-71
2021/06/12 09:04:24;;;;;;;;;;;;;;;25.86;100.00;100195.16;5113176;28;20002;-70
2021/06/12 09:09:39;;;;;;;;;;;;;;;26.44;100.00;100187.47;5112837;28;19918;-71
2021/06/12 09:12:05;;;;;;;;;;;;;;;26.71;100.00;100186.00;5112876;28;20339;-71
2021/06/12 09:14:30;;;;;;;;;;;;;;;26.53;100.00;100178.88;5112367;28;19965;-71
2021/06/12 09:16:55;;;;;;;;;;;;;;;26.76;100.00;100185.28;5112402;28;19911;-70
2021/06/12 09:19:21;;;;;;;;;;;;;;;26.83;100.00;100178.75;5113116;28;19911;-70
2021/06/12 09:21:48;;;;;;;;;;;;;;;26.73;100.00;100183.91;5113984;28;19915;-71
2021/06/12 09:24:24;;;;;;;;;;;;;;;26.98;100.00;100177.47;5113672;28;19912;-70
2021/06/12 09:26:57;;;;;;;;;;;;;;;27.14;100.00;100175.94;5114396;28;19912;-70
2021/06/12 09:29:31;;;;;;;;;;;;;;;27.25;100.00;100177.78;5113968;28;20398;-70
2021/06/12 09:31:57;;;;;;;;;;;;;;;27.41;100.00;100181.63;5114160;28;19911;-70
2021/06/12 09:34:23;;;;;;;;;;;;;;;27.04;100.00;100179.22;5113796;28;19919;-70
2021/06/12 09:36:49;;;;;;;;;;;;;;;27.38;100.00;100177.53;5114047;28;19922;-70
2021/06/12 09:42:03;;;;;;;;;;;;;;;26.04;100.00;100178.16;5114029;28;19969;-69
2021/06/12 09:44:36;;;;;;;;;;;;;;;26.43;100.00;100165.16;5113834;28;20332;-69
2021/06/12 09:47:03;;;;;;;;;;;;;;;26.90;100.00;100170.56;5113686;28;19918;-69
2021/06/12 09:49:38;;;;;;;;;;;;;;;27.13;100.00;100174.28;5113591;28;19916;-69
2021/06/12 09:52:08;;;;;;;;;;;;;;;27.36;99.73;100171.56;5113795;28;19969;-71
2021/06/12 09:54:37;;;;;;;;;;;;;;;27.60;100.00;100160.72;5113472;28;19911;-70
2021/06/12 09:57:03;;;;;;;;;;;;;;;27.61;95.17;100159.66;5095169;28;20302;-70
2021/06/12 09:59:36;;;;;;;;;;;;;;;27.79;90.75;100162.19;5113432;28;19911;-68
2021/06/12 10:04:56;;;;;;;;;;;;;;;28.00;79.74;100157.97;5112312;28;19972;-70
2021/06/12 10:07:22;;;;;;;;;;;;;;;28.30;73.26;100152.28;5112625;28;19911;-70
2021/06/12 10:09:48;;;;;;;;;;;;;;;28.50;50.42;100151.81;5112517;28;19912;-71
2021/06/12 10:12:13;;;;;;;;;;;;;;;28.50;54.33;100145.59;5112631;28;19918;-70
2021/06/12 10:14:39;;;;;;;;;;;;;;;28.77;53.90;100143.84;5112769;28;19919;-69
2021/06/12 10:17:11;;;;;;;;;;;;;;;28.69;51.87;100145.09;5112119;28;19915;-70
2021/06/12 10:19:37;;;;;;;;;;;;;;;28.81;50.90;100136.88;5112551;28;19923;-70
2021/06/12 10:22:03;;;;;;;;;;;;;;;28.11;49.05;100142.78;5112907;28;19916;-71
2021/06/12 10:24:28;;;;;;;;;;;;;;;27.86;48.86;100152.06;5112982;28;19977;-69
2021/06/12 10:26:54;;;;;;;;;;;;;;;27.20;54.20;100137.31;5112972;28;19967;-70
2021/06/12 10:29:19;;;;;;;;;;;;;;;26.98;54.80;100135.25;5113119;28;19919;-69
2021/06/12 10:31:45;;;;;;;;;;;;;;;26.84;55.90;100137.38;5113195;28;20432;-69
2021/06/12 10:34:10;;;;;;;;;;;;;;;26.96;56.34;100126.59;5112501;28;19915;-69
2021/06/12 10:36:38;;;;;;;;;;;;;;;27.28;54.69;100124.31;5112942;28;19912;-69
2021/06/12 10:39:23;;;;;;;;;;;;;;;27.75;57.12;100120.63;5113278;28;19976;-70
2021/06/12 10:44:52;;;;;;;;;;;;;;;28.09;57.59;100115.31;5112948;28;19977;-71
2021/06/12 10:47:38;;;;;;;;;;;;;;;28.20;53.63;100109.00;5113342;28;20290;-72
2021/06/12 10:50:22;;;;;;;;;;;;;;;28.08;54.48;100110.97;5111845;28;19912;-71
2021/06/12 10:52:47;;;;;;;;;;;;;;;28.00;54.21;100112.19;5113258;28;20060;-71
2021/06/12 10:55:31;;;;;;;;;;;;;;;27.99;53.71;100111.38;5112868;28;19985;-71
2021/06/12 10:57:56;;;;;;;;;;;;;;;27.76;53.21;100106.94;5113214;28;19912;-70
2021/06/12 11:00:23;;;;;;;;;;;;;;;27.78;53.03;100096.75;5113084;28;19912;-70
2021/06/12 11:02:56;;;;;;;;;;;;;;;27.88;49.16;100098.81;5094088;28;19912;-71
2021/06/12 11:08:14;;;;;;;;;;;;;;;27.98;50.86;100088.22;5112903;28;19918;-68
2021/06/12 11:10:40;;;;;;;;;;;;;;;27.88;51.76;100079.97;5112559;28;20370;-68
2021/06/12 11:13:19;;;;;;;;;;;;;;;28.11;49.08;100075.44;5112603;28;20041;-70
2021/06/12 11:15:45;;;;;;;;;;;;;;;27.81;50.47;100079.31;5113087;28;20297;-68
2021/06/12 11:21:18;;;;;;;;;;;;;;;27.52;50.25;100081.19;5116341;28;19957;-72
2021/06/12 11:23:48;;;;;;;;;;;;;;;27.63;49.07;100071.41;5116513;28;19911;-72
2021/06/12 11:26:14;;;;;;;;;;;;;;;27.55;49.50;100078.81;5100071;28;20394;-73
2021/06/12 11:28:41;;;;;;;;;;;;;;;27.70;46.09;100070.19;5114255;28;20390;-69
2021/06/12 11:31:23;;;;;;;;;;;;;;;27.63;48.68;100066.84;5115758;28;19923;-69
2021/06/12 11:34:15;;;;;;;;;;;;;;;27.88;47.73;100057.59;5115715;28;19947;-69
2021/06/12 11:36:41;;;;;;;;;;;;;;;27.93;49.58;100060.38;5088799;28;19920;-69
2021/06/12 11:39:06;;;;;;;;;;;;;;;28.07;50.05;100055.47;5103311;28;20013;-70
2021/06/12 11:41:32;;;;;;;;;;;;;;;28.12;47.35;100058.25;5111935;28;20430;-68
2021/06/12 11:43:59;;;;;;;;;;;;;;;28.11;46.99;100059.28;5112039;28;19920;-68
2021/06/12 11:46:28;;;;;;;;;;;;;;;27.64;46.83;100062.25;5115625;28;19923;-70
2021/06/12 11:48:53;;;;;;;;;;;;;;;27.55;48.36;100048.41;5116418;28;19911;-69
2021/06/12 11:51:25;;;;;;;;;;;;;;;27.61;49.31;100049.28;5115706;28;20271;-69
2021/06/12 11:54:09;;;;;;;;;;;;;;;27.76;48.89;100052.28;5104191;28;19912;-69
2021/06/12 11:56:36;;;;;;;;;;;;;;;28.15;48.95;100047.00;5077107;28;19916;-68
2021/06/12 11:59:02;;;;;;;;;;;;;;;28.02;47.29;100040.88;5095091;28;19920;-68
2021/06/12 12:01:38;;;;;;;;;;;;;;;27.72;51.03;100040.34;5095503;28;19912;-68
2021/06/12 12:04:05;;;;;;;;;;;;;;;27.71;53.49;100044.13;5095099;28;19912;-69
2021/06/12 12:06:31;;;;;;;;;;;;;;;27.91;46.33;100036.38;5095208;28;19912;-69
2021/06/12 12:08:56;;;;;;;;;;;;;;;28.02;45.36;100032.78;5095163;28;20396;-69
2021/06/12 12:11:21;;;;;;;;;;;;;;;28.28;45.72;100038.53;5095073;28;19912;-69
2021/06/12 12:13:47;;;;;;;;;;;;;;;28.47;45.71;100029.13;5095030;28;19912;-69
2021/06/12 12:16:19;;;;;;;;;;;;;;;28.22;40.45;100031.47;5094953;28;19911;-70
2021/06/12 12:21:37;;;;;;;;;;;;;;;28.56;42.34;100031.41;5094976;28;19922;-68
2021/06/12 12:24:06;;;;;;;;;;;;;;;28.41;43.28;100030.13;5094957;28;19912;-69
2021/06/12 12:26:32;;;;;;;;;;;;;;;28.50;46.58;100025.13;5096241;28;19922;-70
2021/06/12 12:28:59;;;;;;;;;;;;;;;28.29;49.52;100015.13;5113136;28;20309;-69
2021/06/12 12:31:29;;;;;;;;;;;;;;;28.30;49.17;100017.56;5115049;28;19968;-68
2021/06/12 12:33:55;;;;;;;;;;;;;;;27.93;51.33;100025.38;5096738;28;20390;-70
2021/06/12 12:36:21;;;;;;;;;;;;;;;27.67;51.30;100024.09;5115108;28;19919;-69
2021/06/12 12:38:54;;;;;;;;;;;;;;;27.48;53.91;100047.75;5115263;28;19912;-72
2021/06/12 12:41:21;;;;;;;;;;;;;;;26.68;52.61;100052.06;5114842;28;19912;-71
2021/06/12 12:43:47;;;;;;;;;;;;;;;25.63;53.27;100053.63;5114964;28;20014;-71
2021/06/12 12:46:13;;;;;;;;;;;;;;;25.30;54.75;100053.28;5114570;28;19962;-72
2021/06/12 12:48:39;;;;;;;;;;;;;;;25.05;58.96;100050.69;5114847;28;19915;-70
2021/06/12 12:51:04;;;;;;;;;;;;;;;24.66;54.91;100058.97;5096412;28;19912;-71
2021/06/12 12:53:39;;;;;;;;;;;;;;;24.12;55.18;100067.72;5114110;28;20037;-70
2021/06/12 12:56:07;;;;;;;;;;;;;;;23.99;55.07;100068.63;5112870;28;19934;-70
2021/06/12 12:58:33;;;;;;;;;;;;;;;23.80;54.77;100071.25;5112994;28;19918;-70
2021/06/12 13:01:02;;;;;;;;;;;;;;;23.61;54.27;100066.81;5112984;28;19916;-72
2021/06/12 13:03:39;;;;;;;;;;;;;;;23.15;55.12;100077.75;5112646;28;19912;-72
2021/06/12 13:06:04;;;;;;;;;;;;;;;23.00;58.73;100075.38;5112706;28;19947;-70
2021/06/12 13:08:30;;;;;;;;;;;;;;;22.91;62.96;100077.41;5113189;28;19952;-71
2021/06/12 13:11:05;;;;;;;;;;;;;;;22.98;65.85;100077.41;5114756;28;20006;-73
2021/06/12 13:13:39;;;;;;;;;;;;;;;22.90;67.37;100070.44;5113633;28;19922;-72
2021/06/12 13:16:04;;;;;;;;;;;;;;;22.37;69.36;100063.34;5114025;28;19985;-70
2021/06/12 13:18:34;;;;;;;;;;;;;;;22.12;68.18;100057.81;5113705;28;20382;-74
2021/06/12 13:21:10;;;;;;;;;;;;;;;21.95;67.75;100055.78;5113984;28;20337;-73